Time;durP1;ratioP1;P1;durP2;ratioP2;P2;SDS_P1;SDS_P2;PMS_P1;PMS_P2;Temp;Humidity;BMP_temperature;BMP_pressure;BME280_temperature;BME280_humidity;BME280_pressure;Samples;Min_cycle;Max_cycle;Signal;HPM_P1;HPM_P2
2022/07/22 16:51:24;;;;;;;;;;;22.40;87.20;;;;;;4984964;28;19945;-78
2022/07/22 16:53:59;;;;;;;;;;;22.30;87.20;;;;;;4987544;28;20394;-80
2022/07/22 16:56:30;;;;;;;;;;;22.20;87.70;;;;;;4987976;28;19934;-78
2022/07/22 16:58:59;;;;;;;;;;;21.90;87.90;;;;;;4995787;28;19941;-77
2022/07/22 17:01:29;;;;;;;;;;;22.10;87.70;;;;;;4999299;28;19934;-77
2022/07/22 17:03:57;;;;;;;;;;;22.00;87.80;;;;;;5006974;28;19949;-80
2022/07/22 17:06:25;;;;;;;;;;;22.00;88.10;;;;;;5003490;28;19953;-78
2022/07/22 17:08:53;;;;;;;;;;;22.00;88.10;;;;;;4988922;28;19926;-77
2022/07/22 17:11:22;;;;;;;;;;;21.80;88.20;;;;;;5011863;28;19936;-79
2022/07/22 17:13:50;;;;;;;;;;;21.80;88.70;;;;;;5012564;28;19926;-76
2022/07/22 17:16:21;;;;;;;;;;;21.80;89.30;;;;;;4989420;28;20315;-77
2022/07/22 17:18:52;;;;;;;;;;;21.80;89.00;;;;;;4993418;28;19926;-78
2022/07/22 17:21:23;;;;;;;;;;;21.90;88.40;;;;;;4986718;28;19936;-78
2022/07/22 17:23:54;;;;;;;;;;;22.00;88.30;;;;;;5001576;28;20326;-79
2022/07/22 17:26:22;;;;;;;;;;;22.10;88.00;;;;;;5002428;28;19930;-78
2022/07/22 17:28:50;;;;;;;;;;;22.30;87.70;;;;;;4985885;28;20191;-77
2022/07/22 17:31:18;;;;;;;;;;;22.30;87.30;;;;;;4990523;28;19934;-78
2022/07/22 17:33:51;;;;;;;;;;;22.70;86.50;;;;;;4986210;28;19926;-76
2022/07/22 17:36:19;;;;;;;;;;;22.80;86.00;;;;;;5005863;28;19930;-78
2022/07/22 17:38:49;;;;;;;;;;;22.90;86.20;;;;;;4984114;28;19934;-77
2022/07/22 17:41:20;;;;;;;;;;;22.90;85.60;;;;;;5005713;28;19925;-78
2022/07/22 17:43:49;;;;;;;;;;;22.10;86.10;;;;;;4983078;28;19941;-78
2022/07/22 17:46:17;;;;;;;;;;;22.60;86.70;;;;;;4970237;28;19926;-78
2022/07/22 17:48:46;;;;;;;;;;;22.50;87.10;;;;;;5008372;28;19936;-78
2022/07/22 17:51:14;;;;;;;;;;;22.30;87.00;;;;;;4991940;28;19929;-78
2022/07/22 17:53:44;;;;;;;;;;;22.20;88.10;;;;;;5002306;28;19926;-79
2022/07/22 17:56:13;;;;;;;;;;;22.10;87.80;;;;;;4976946;28;19930;-78
2022/07/22 17:59:00;;;;;;;;;;;22.10;88.10;;;;;;4982124;28;19936;-78
2022/07/22 18:01:29;;;;;;;;;;;22.00;88.30;;;;;;4981410;28;20178;-77
2022/07/22 18:03:57;;;;;;;;;;;22.10;88.70;;;;;;4982484;28;19945;-77
2022/07/22 18:06:26;;;;;;;;;;;21.80;88.80;;;;;;4999720;28;19926;-78
2022/07/22 18:08:54;;;;;;;;;;;21.70;88.70;;;;;;4981078;28;19934;-79
2022/07/22 18:11:24;;;;;;;;;;;21.70;88.50;;;;;;4996835;28;19938;-78
2022/07/22 18:13:54;;;;;;;;;;;21.60;88.90;;;;;;4651457;28;9999793;-79
2022/07/22 18:16:23;;;;;;;;;;;21.50;89.10;;;;;;4981224;28;19933;-78
2022/07/22 18:18:52;;;;;;;;;;;21.50;89.00;;;;;;4980426;28;19930;-78
2022/07/22 18:21:23;;;;;;;;;;;21.40;89.00;;;;;;4997710;28;19926;-78
2022/07/22 18:23:51;;;;;;;;;;;21.40;89.10;;;;;;4981703;28;19934;-79
2022/07/22 18:26:19;;;;;;;;;;;21.30;89.40;;;;;;4999541;28;19945;-78
2022/07/22 18:28:49;;;;;;;;;;;21.20;89.60;;;;;;4979320;28;19937;-78
2022/07/22 18:31:17;;;;;;;;;;;21.10;89.40;;;;;;4985649;28;19926;-78
2022/07/22 18:33:47;;;;;;;;;;;21.50;89.80;;;;;;4997916;28;20019;-78
2022/07/22 18:36:15;;;;;;;;;;;20.90;90.00;;;;;;4996797;28;19926;-80
2022/07/22 18:38:43;;;;;;;;;;;20.90;90.20;;;;;;4999135;28;20030;-80
2022/07/22 18:41:15;;;;;;;;;;;20.90;90.20;;;;;;4997466;28;19936;-78
2022/07/22 18:43:43;;;;;;;;;;;20.90;90.10;;;;;;4998373;28;19930;-79
2022/07/22 18:46:11;;;;;;;;;;;20.70;90.30;;;;;;4982358;28;19930;-81
2022/07/22 18:48:39;;;;;;;;;;;20.60;90.40;;;;;;4998175;28;19934;-78
2022/07/22 18:51:08;;;;;;;;;;;20.60;90.80;;;;;;4979216;28;19933;-78
2022/07/22 18:53:37;;;;;;;;;;;20.50;90.80;;;;;;4996444;28;19933;-79
2022/07/22 18:56:05;;;;;;;;;;;20.50;90.80;;;;;;4981603;28;19929;-79
2022/07/22 18:58:33;;;;;;;;;;;20.90;91.30;;;;;;4976929;28;19926;-78
2022/07/22 19:01:01;;;;;;;;;;;20.50;91.30;;;;;;4965865;28;20451;-80
2022/07/22 19:03:31;;;;;;;;;;;20.40;91.30;;;;;;4990989;28;19933;-79
2022/07/22 19:06:00;;;;;;;;;;;20.40;91.20;;;;;;4981133;28;20395;-79
2022/07/22 19:08:29;;;;;;;;;;;20.30;91.10;;;;;;4998394;28;19933;-79
2022/07/22 19:10:56;;;;;;;;;;;20.20;91.80;;;;;;4980824;28;19926;-78
2022/07/22 19:13:24;;;;;;;;;;;20.10;92.10;;;;;;4979546;28;19945;-79
2022/07/22 19:15:55;;;;;;;;;;;20.10;92.20;;;;;;4998664;28;20110;-78
2022/07/22 19:18:23;;;;;;;;;;;20.00;92.20;;;;;;4982304;28;19930;-78
2022/07/22 19:20:52;;;;;;;;;;;19.60;92.00;;;;;;4982408;28;19926;-78
2022/07/22 19:23:21;;;;;;;;;;;19.90;92.20;;;;;;5001111;28;19941;-78
2022/07/22 19:25:49;;;;;;;;;;;19.80;92.30;;;;;;4963353;28;19934;-80
2022/07/22 19:28:17;;;;;;;;;;;19.70;92.90;;;;;;4976379;28;19929;-79
2022/07/22 19:30:46;;;;;;;;;;;21.00;93.30;;;;;;5001688;28;19926;-81
2022/07/22 19:33:15;;;;;;;;;;;18.80;92.70;;;;;;4999096;28;20425;-81
2022/07/22 19:35:43;;;;;;;;;;;19.60;93.40;;;;;;4978010;28;19926;-79
2022/07/22 19:38:11;;;;;;;;;;;19.40;93.30;;;;;;4979395;28;19945;-79
2022/07/22 19:40:40;;;;;;;;;;;19.40;93.50;;;;;;4986894;28;19933;-79
2022/07/22 19:43:08;;;;;;;;;;;19.30;93.20;;;;;;4984667;28;19926;-78
2022/07/22 19:45:37;;;;;;;;;;;19.30;93.10;;;;;;4979683;28;19937;-77
2022/07/22 19:48:06;;;;;;;;;;;19.30;93.30;;;;;;5003022;28;19930;-80
2022/07/22 19:50:36;;;;;;;;;;;19.30;93.40;;;;;;4997526;28;20391;-77
2022/07/22 19:53:04;;;;;;;;;;;19.20;93.40;;;;;;5000422;28;19926;-78
2022/07/22 19:55:32;;;;;;;;;;;19.10;93.80;;;;;;4981505;28;19925;-79
2022/07/22 19:58:01;;;;;;;;;;;18.90;93.50;;;;;;4999476;28;19945;-80
2022/07/22 20:00:29;;;;;;;;;;;19.10;94.20;;;;;;5001178;28;19940;-78
2022/07/22 20:02:57;;;;;;;;;;;19.10;93.80;;;;;;4984270;28;19930;-80
2022/07/22 20:05:25;;;;;;;;;;;19.10;94.20;;;;;;4986798;28;19925;-81
2022/07/22 20:07:54;;;;;;;;;;;19.10;93.70;;;;;;5001524;28;19926;-81
2022/07/22 20:10:22;;;;;;;;;;;21.40;94.50;;;;;;4976729;28;19934;-81
2022/07/22 20:12:50;;;;;;;;;;;19.10;93.70;;;;;;5002228;28;19926;-78
2022/07/22 20:15:19;;;;;;;;;;;19.20;94.00;;;;;;4989795;28;19952;-80
2022/07/22 20:17:49;;;;;;;;;;;19.20;94.00;;;;;;5002159;28;19940;-82
2022/07/22 20:20:17;;;;;;;;;;;17.00;93.30;;;;;;4989240;28;19941;-79
2022/07/22 20:22:51;;;;;;;;;;;19.30;93.70;;;;;;4989941;28;19934;-78
2022/07/22 20:25:20;;;;;;;;;;;19.10;94.00;;;;;;4988879;28;19932;-77
2022/07/22 20:27:58;;;;;;;;;;;19.10;93.90;;;;;;4985272;28;19934;-77
2022/07/22 20:30:26;;;;;;;;;;;19.10;94.80;;;;;;4984154;28;19926;-77
2022/07/22 20:32:55;;;;;;;;;;;19.00;94.70;;;;;;4984332;28;20444;-77
2022/07/22 20:35:24;;;;;;;;;;;19.00;94.30;;;;;;4986250;28;19926;-78
2022/07/22 20:37:52;;;;;;;;;;;19.00;94.40;;;;;;5002157;28;19925;-77
2022/07/22 20:40:23;;;;;;;;;;;18.90;95.10;;;;;;5002513;28;19936;-79
2022/07/22 20:42:55;;;;;;;;;;;18.90;94.50;;;;;;5001370;28;19937;-78
2022/07/22 20:45:25;;;;;;;;;;;18.90;95.20;;;;;;4981434;28;19949;-77
2022/07/22 20:47:57;;;;;;;;;;;18.80;95.00;;;;;;5002151;28;19933;-78
2022/07/22 20:50:27;;;;;;;;;;;18.70;95.20;;;;;;5001725;28;19933;-78
2022/07/22 20:53:03;;;;;;;;;;;18.70;95.60;;;;;;4984284;28;19945;-77
2022/07/22 20:55:33;;;;;;;;;;;18.80;95.50;;;;;;4968983;28;20442;-78
2022/07/22 20:58:01;;;;;;;;;;;18.80;95.30;;;;;;4971615;28;19945;-82
2022/07/22 21:00:30;;;;;;;;;;;18.80;95.80;;;;;;4974381;28;19934;-78
2022/07/22 21:02:58;;;;;;;;;;;18.90;95.20;;;;;;5000437;28;20457;-79
2022/07/22 21:05:26;;;;;;;;;;;18.90;95.50;;;;;;5004457;28;19945;-78
2022/07/22 21:07:53;;;;;;;;;;;18.80;95.60;;;;;;4990161;28;19940;-79
2022/07/22 21:10:26;;;;;;;;;;;18.90;95.30;;;;;;4976026;28;19925;-77
2022/07/22 21:12:53;;;;;;;;;;;18.90;95.50;;;;;;4972115;28;19926;-78
2022/07/22 21:15:21;;;;;;;;;;;19.20;95.50;;;;;;4994364;28;19930;-77
2022/07/22 21:17:49;;;;;;;;;;;18.90;95.50;;;;;;4973077;28;19930;-77
2022/07/22 21:20:17;;;;;;;;;;;18.90;95.50;;;;;;5004823;28;19925;-80
2022/07/22 21:22:45;;;;;;;;;;;18.90;95.30;;;;;;4989867;28;19930;-78
2022/07/22 21:25:13;;;;;;;;;;;18.80;95.30;;;;;;4980623;28;19930;-77
2022/07/22 21:27:41;;;;;;;;;;;18.80;95.50;;;;;;5000244;28;19930;-79
2022/07/22 21:30:10;;;;;;;;;;;18.80;95.70;;;;;;4991482;28;19940;-78
2022/07/22 21:32:42;;;;;;;;;;;18.70;96.10;;;;;;4985222;28;19941;-77
2022/07/22 21:35:10;;;;;;;;;;;18.70;95.40;;;;;;4986933;28;20471;-78
2022/07/22 21:37:38;;;;;;;;;;;18.80;95.80;;;;;;4985854;28;19941;-79
2022/07/22 21:40:07;;;;;;;;;;;18.60;96.20;;;;;;4970400;28;20722;-78
2022/07/22 21:42:37;;;;;;;;;;;18.60;96.00;;;;;;4977136;28;19929;-78
2022/07/22 21:45:07;;;;;;;;;;;18.60;96.30;;;;;;4970993;28;19937;-77
2022/07/22 21:47:39;;;;;;;;;;;18.60;96.50;;;;;;4974214;28;19945;-77
2022/07/22 21:50:07;;;;;;;;;;;18.60;96.40;;;;;;5004357;28;19926;-78
2022/07/22 21:52:37;;;;;;;;;;;18.60;96.60;;;;;;5004666;28;19936;-80
2022/07/22 21:55:12;;;;;;;;;;;18.60;96.20;;;;;;4972595;28;19934;-78
2022/07/22 21:57:40;;;;;;;;;;;18.70;96.40;;;;;;4987332;28;19930;-79
2022/07/22 22:00:10;;;;;;;;;;;18.70;96.30;;;;;;5002168;28;19929;-76
2022/07/22 22:02:38;;;;;;;;;;;18.70;96.30;;;;;;4977659;28;19926;-78
2022/07/22 22:05:10;;;;;;;;;;;18.70;96.40;;;;;;4967816;28;19926;-77
2022/07/22 22:07:40;;;;;;;;;;;18.70;96.40;;;;;;4967489;28;19930;-77
2022/07/22 22:10:08;;;;;;;;;;;18.70;96.90;;;;;;4968311;28;19937;-78
2022/07/22 22:12:36;;;;;;;;;;;18.70;96.40;;;;;;4988100;28;19937;-78
2022/07/22 22:15:05;;;;;;;;;;;18.70;96.50;;;;;;4985859;28;19930;-78
2022/07/22 22:17:32;;;;;;;;;;;18.70;96.40;;;;;;4984784;28;19926;-78
2022/07/22 22:20:02;;;;;;;;;;;18.70;96.50;;;;;;4986388;28;19937;-77
2022/07/22 22:22:30;;;;;;;;;;;18.60;96.50;;;;;;4971831;28;19952;-77
2022/07/22 22:24:59;;;;;;;;;;;18.70;96.30;;;;;;4996101;28;19941;-78
2022/07/22 22:27:27;;;;;;;;;;;18.30;96.10;;;;;;4986700;28;19926;-77
2022/07/22 22:29:55;;;;;;;;;;;19.40;96.40;;;;;;4987666;28;19929;-80
2022/07/22 22:32:23;;;;;;;;;;;18.80;96.50;;;;;;5003810;28;19926;-77
2022/07/22 22:34:53;;;;;;;;;;;18.80;96.20;;;;;;4982022;28;19941;-77
2022/07/22 22:37:21;;;;;;;;;;;18.80;96.00;;;;;;5003454;28;19930;-77
2022/07/22 22:39:54;;;;;;;;;;;18.80;96.10;;;;;;4988942;28;19930;-78
2022/07/22 22:42:23;;;;;;;;;;;18.70;96.30;;;;;;5004016;28;19940;-78
2022/07/22 22:44:51;;;;;;;;;;;18.70;96.40;;;;;;4987268;28;19932;-77
2022/07/22 22:47:20;;;;;;;;;;;18.60;96.30;;;;;;4981866;28;19930;-78
2022/07/22 22:49:47;;;;;;;;;;;18.60;96.10;;;;;;4972860;28;19929;-78
2022/07/22 22:52:15;;;;;;;;;;;18.40;96.50;;;;;;4988625;28;19945;-79
2022/07/22 22:54:43;;;;;;;;;;;18.50;96.50;;;;;;4990592;28;19926;-78
2022/07/22 22:57:11;;;;;;;;;;;18.50;96.50;;;;;;5017893;28;19934;-78
2022/07/22 22:59:39;;;;;;;;;;;18.50;96.80;;;;;;5006857;28;19925;-77
2022/07/22 23:02:07;;;;;;;;;;;18.40;96.80;;;;;;4989554;28;19926;-78
2022/07/22 23:04:34;;;;;;;;;;;18.30;97.00;;;;;;4988698;28;19925;-78
2022/07/22 23:07:02;;;;;;;;;;;18.30;96.70;;;;;;4964579;28;19926;-79
2022/07/22 23:09:30;;;;;;;;;;;18.30;96.80;;;;;;4984337;28;20299;-80
2022/07/22 23:11:58;;;;;;;;;;;18.30;97.00;;;;;;4964176;28;19926;-78
2022/07/22 23:14:25;;;;;;;;;;;18.20;97.10;;;;;;4990463;28;19944;-78
2022/07/22 23:16:54;;;;;;;;;;;18.20;97.20;;;;;;5008421;28;19949;-79
2022/07/22 23:19:21;;;;;;;;;;;18.20;96.90;;;;;;5009344;28;19929;-77
2022/07/22 23:21:50;;;;;;;;;;;17.30;96.70;;;;;;5016381;28;19925;-78
2022/07/22 23:24:18;;;;;;;;;;;18.10;96.70;;;;;;4982279;28;19921;-80
2022/07/22 23:26:47;;;;;;;;;;;18.10;97.10;;;;;;4994658;28;19941;-77
2022/07/22 23:29:16;;;;;;;;;;;18.10;96.90;;;;;;4992753;28;19930;-79
2022/07/22 23:31:44;;;;;;;;;;;18.00;96.90;;;;;;5011844;28;19925;-78
2022/07/22 23:34:11;;;;;;;;;;;18.10;96.90;;;;;;5014965;28;20535;-78
2022/07/22 23:36:40;;;;;;;;;;;18.00;97.20;;;;;;4992696;28;19926;-80
2022/07/22 23:39:11;;;;;;;;;;;18.00;96.90;;;;;;4993178;28;19930;-79
2022/07/22 23:41:40;;;;;;;;;;;18.00;97.00;;;;;;4991203;28;20290;-79
2022/07/22 23:44:08;;;;;;;;;;;18.00;97.00;;;;;;4994817;28;19925;-78
2022/07/22 23:46:38;;;;;;;;;;;18.00;97.00;;;;;;4990592;28;19914;-79
2022/07/22 23:49:06;;;;;;;;;;;18.00;97.00;;;;;;5007810;28;19936;-77
2022/07/22 23:51:34;;;;;;;;;;;18.00;97.20;;;;;;5010866;28;19925;-78
2022/07/22 23:54:04;;;;;;;;;;;17.90;97.10;;;;;;4991882;28;19926;-79
2022/07/22 23:56:32;;;;;;;;;;;18.20;97.10;;;;;;5012352;28;19936;-81
2022/07/22 23:59:02;;;;;;;;;;;17.90;97.00;;;;;;4991373;28;19926;-77
